Time,TemperatureF,DewpointF,PressureIn,WindDirection,WindDirectionDegrees,WindSpeedMPH,WindSpeedGustMPH,Humidity,HourlyPrecipIn,Conditions,Clouds,dailyrainin,SolarRadiationWatts/m^2,SoftwareType,DateUTC
2013-02-15 00:00:00,32.9,27.7,29.83,West,266,24.2,24.2,81,0.00,RA,,0.00,0.0,WeatherDisplay:10.37,2013-02-15 05:00:00,
2013-02-15 00:05:00,32.6,27.4,29.84,WNW,295,26.5,26.5,81,0.00,RA,,0.00,0.0,WeatherDisplay:10.37,2013-02-15 05:05:00,
2013-02-15 00:10:00,32.4,27.2,29.85,WNW,303,19.6,19.6,81,0.00,CLR,,0.00,0.0,WeatherDisplay:10.37,2013-02-15 05:10:00,
2013-02-15 00:15:00,32.2,26.7,29.85,WNW,285,20.7,20.7,80,0.00,CLR,,0.00,0.0,WeatherDisplay:10.37,2013-02-15 05:15:00,
2013-02-15 00:20:00,31.9,26.1,29.85,NNW,333,20.7,20.7,79,0.00,CLR,,0.00,0.0,WeatherDisplay:10.37,2013-02-15 05:20:00,
2013-02-15 00:25:00,31.8,26.3,29.85,WNW,283,16.1,16.1,80,0.00,CLR,,0.00,0.0,WeatherDisplay:10.37,2013-02-15 05:25:00,
2013-02-15 00:30:00,31.6,25.8,29.85,NW,321,19.6,19.6,79,0.00,CLR,,0.00,0.0,WeatherDisplay:10.37,2013-02-15 05:30:00,
2013-02-15 00:35:00,31.5,25.7,29.86,NNW,340,18.0,18.0,79,0.00,CLR,,0.00,0.0,WeatherDisplay:10.37,2013-02-15 05:35:00,
2013-02-15 00:40:00,31.3,25.2,29.86,NNW,342,12.7,12.7,78,0.00,CLR,,0.00,0.0,WeatherDisplay:10.37,2013-02-15 05:40:00,
2013-02-15 00:45:00,31.1,25.0,29.86,WNW,294,16.1,16.1,78,0.00,CLR,,0.00,0.0,WeatherDisplay:10.37,2013-02-15 05:45:00,
2013-02-15 00:50:00,30.8,24.7,29.86,NW,306,12.7,12.7,78,0.00,CLR,,0.00,0.0,WeatherDisplay:10.37,2013-02-15 05:50:00,
2013-02-15 00:55:00,30.6,24.6,29.87,North,5,16.1,16.1,78,0.00,CLR,,0.00,0.0,WeatherDisplay:10.37,2013-02-15 05:55:00,
2013-02-15 01:00:00,30.5,24.5,29.86,NNW,327,15.0,15.0,78,0.00,CLR,,0.00,0.0,WeatherDisplay:10.37,2013-02-15 06:00:00,
2013-02-15 01:05:00,30.4,24.4,29.86,NNW,340,16.1,16.1,78,0.00,CLR,,0.00,0.0,WeatherDisplay:10.37,2013-02-15 06:05:00,
2013-02-15 01:10:00,30.3,24.6,29.86,NW,314,11.5,11.5,79,0.00,CLR,,0.00,0.0,WeatherDisplay:10.37,2013-02-15 06:10:00,
2013-02-15 01:15:00,30.3,24.6,29.86,WNW,294,17.0,17.0,79,0.00,CLR,,0.00,0.0,WeatherDisplay:10.37,2013-02-15 06:15:00,
2013-02-15 01:20:00,30.3,24.9,29.86,NNW,343,16.1,16.1,80,0.00,CLR,,0.00,0.0,WeatherDisplay:10.37,2013-02-15 06:20:00,
2013-02-15 01:25:00,30.4,25.0,29.87,NW,313,12.7,12.7,80,0.00,CLR,,0.00,0.0,WeatherDisplay:10.37,2013-02-15 06:25:00,
2013-02-15 01:30:00,30.5,25.1,29.87,NW,321,17.0,17.0,80,0.00,CLR,,0.00,0.0,WeatherDisplay:10.37,2013-02-15 06:30:00,
2013-02-15 01:35:00,30.5,25.1,29.86,NW,326,15.0,15.0,80,0.00,CLR,,0.00,0.0,WeatherDisplay:10.37,2013-02-15 06:35:00,
2013-02-15 01:40:00,30.5,25.1,29.87,WNW,296,11.5,11.5,80,0.00,CLR,,0.00,0.0,WeatherDisplay:10.37,2013-02-15 06:40:00,
2013-02-15 01:45:00,30.5,25.1,29.87,NW,312,11.5,11.5,80,0.00,CLR,,0.00,0.0,WeatherDisplay:10.37,2013-02-15 06:45:00,
2013-02-15 01:50:00,30.5,25.1,29.88,WNW,294,10.4,11.3,80,0.00,CLR,,0.00,0.0,WeatherDisplay:10.37,2013-02-15 06:50:00,
2013-02-15 01:55:00,30.5,25.1,29.88,NW,312,15.0,15.0,80,0.00,CLR,,0.00,0.0,WeatherDisplay:10.37,2013-02-15 06:55:00,
2013-02-15 02:00:00,30.5,25.4,29.88,NW,307,11.5,11.5,81,0.00,CLR,,0.00,0.0,WeatherDisplay:10.37,2013-02-15 07:00:00,
2013-02-15 02:05:00,30.4,25.3,29.88,West,279,9.2,9.2,81,0.00,CLR,,0.00,0.0,WeatherDisplay:10.37,2013-02-15 07:05:00,
2013-02-15 02:10:00,30.3,25.2,29.88,NW,304,13.8,13.8,81,0.00,CLR,,0.00,0.0,WeatherDisplay:10.37,2013-02-15 07:10:00,
2013-02-15 02:15:00,30.2,25.1,29.88,WNW,288,12.7,12.7,81,0.00,CLR,,0.00,0.0,WeatherDisplay:10.37,2013-02-15 07:15:00,
2013-02-15 02:20:00,30.1,25.0,29.89,WNW,294,12.7,12.7,81,0.00,CLR,,0.00,0.0,WeatherDisplay:10.37,2013-02-15 07:20:00,
2013-02-15 02:25:00,30.0,24.6,29.89,West,263,11.0,11.0,80,0.00,CLR,,0.00,0.0,WeatherDisplay:10.37,2013-02-15 07:25:00,
2013-02-15 02:30:00,30.0,24.3,29.89,NNW,333,11.5,11.5,79,0.00,CLR,,0.00,0.0,WeatherDisplay:10.37,2013-02-15 07:30:00,
2013-02-15 02:36:00,29.8,24.1,29.89,NW,314,11.5,11.5,79,0.00,CLR,,0.00,0.0,WeatherDisplay:10.37,2013-02-15 07:36:00,
2013-02-15 02:41:00,29.6,23.9,29.89,West,280,9.2,9.2,79,0.00,CLR,,0.00,0.0,WeatherDisplay:10.37,2013-02-15 07:41:00,
2013-02-15 02:46:00,29.4,23.7,29.89,NW,307,10.4,10.4,79,0.00,CLR,,0.00,0.0,WeatherDisplay:10.37,2013-02-15 07:46:00,
2013-02-15 02:51:00,29.3,23.6,29.89,NW,323,9.2,9.2,79,0.00,CLR,,0.00,0.0,WeatherDisplay:10.37,2013-02-15 07:51:00,
2013-02-15 02:56:00,29.2,23.8,29.90,NW,307,10.4,10.4,80,0.00,CLR,,0.00,0.0,WeatherDisplay:10.37,2013-02-15 07:56:00,
2013-02-15 03:01:00,29.2,23.8,29.90,NW,315,8.1,8.1,80,0.00,CLR,,0.00,0.0,WeatherDisplay:10.37,2013-02-15 08:01:00,
2013-02-15 03:06:00,29.2,24.1,29.90,West,280,9.2,9.2,81,0.00,CLR,,0.00,0.0,WeatherDisplay:10.37,2013-02-15 08:06:00,
2013-02-15 03:11:00,29.1,24.0,29.90,West,280,8.1,8.1,81,0.00,CLR,,0.00,0.0,WeatherDisplay:10.37,2013-02-15 08:11:00,
2013-02-15 03:16:00,29.1,23.7,29.90,West,269,11.5,11.5,80,0.00,CLR,,0.00,0.0,WeatherDisplay:10.37,2013-02-15 08:16:00,
2013-02-15 03:21:00,29.0,23.6,29.91,NW,304,13.8,13.8,80,0.00,CLR,,0.00,0.0,WeatherDisplay:10.37,2013-02-15 08:21:00,
2013-02-15 03:26:00,28.7,23.0,29.91,NW,325,18.4,18.4,79,0.00,CLR,,0.00,0.0,WeatherDisplay:10.37,2013-02-15 08:26:00,
2013-02-15 03:31:00,28.2,22.5,29.91,NW,319,9.2,9.2,79,0.00,CLR,,0.00,0.0,WeatherDisplay:10.37,2013-02-15 08:31:00,
2013-02-15 03:36:00,27.8,22.1,29.91,WNW,284,11.5,11.5,79,0.00,CLR,,0.00,0.0,WeatherDisplay:10.37,2013-02-15 08:36:00,
2013-02-15 03:41:00,27.4,21.7,29.91,NW,317,15.0,15.0,79,0.00,CLR,,0.00,0.0,WeatherDisplay:10.37,2013-02-15 08:41:00,
2013-02-15 03:46:00,27.0,21.7,29.92,NW,313,11.5,11.5,80,0.00,CLR,,0.00,0.0,WeatherDisplay:10.37,2013-02-15 08:46:00,
2013-02-15 03:51:00,26.7,21.1,29.92,WNW,286,13.8,13.8,79,0.00,CLR,,0.00,0.0,WeatherDisplay:10.37,2013-02-15 08:51:00,
2013-02-15 03:56:00,26.5,21.2,29.92,WNW,303,11.5,11.5,80,0.00,CLR,,0.00,0.0,WeatherDisplay:10.37,2013-02-15 08:56:00,
2013-02-15 04:01:00,26.3,21.0,29.92,WNW,284,16.1,16.1,80,0.00,CLR,,0.00,0.0,WeatherDisplay:10.37,2013-02-15 09:01:00,
2013-02-15 04:06:00,26.2,20.6,29.93,NW,305,17.3,17.3,79,0.00,CLR,,0.00,0.0,WeatherDisplay:10.37,2013-02-15 09:06:00,
2013-02-15 04:11:00,26.1,20.5,29.93,WNW,296,18.4,18.4,79,0.00,CLR,,0.00,0.0,WeatherDisplay:10.37,2013-02-15 09:11:00,
2013-02-15 04:16:00,26.0,20.7,29.93,NW,314,11.5,11.5,80,0.00,CLR,,0.00,0.0,WeatherDisplay:10.37,2013-02-15 09:16:00,
2013-02-15 04:21:00,25.9,20.3,29.93,WNW,288,16.1,16.1,79,0.00,CLR,,0.00,0.0,WeatherDisplay:10.37,2013-02-15 09:21:00,
2013-02-15 04:26:00,25.8,20.2,29.93,WNW,285,11.5,11.5,79,0.00,CLR,,0.00,0.0,WeatherDisplay:10.37,2013-02-15 09:26:00,
2013-02-15 04:31:00,25.8,20.2,29.94,NW,317,13.8,13.8,79,0.00,CLR,,0.00,0.0,WeatherDisplay:10.37,2013-02-15 09:31:00,
2013-02-15 04:36:00,25.8,20.2,29.94,West,263,8.0,8.0,79,0.00,CLR,,0.00,0.0,WeatherDisplay:10.37,2013-02-15 09:36:00,
2013-02-15 04:41:00,25.8,20.2,29.95,WNW,300,13.8,13.8,79,0.00,CLR,,0.00,0.0,WeatherDisplay:10.37,2013-02-15 09:41:00,
2013-02-15 04:46:00,25.8,20.2,29.95,WNW,300,13.0,13.0,79,0.00,CLR,,0.00,0.0,WeatherDisplay:10.37,2013-02-15 09:46:00,
2013-02-15 04:51:00,25.7,20.1,29.95,NW,323,9.2,9.2,79,0.00,CLR,,0.00,0.0,WeatherDisplay:10.37,2013-02-15 09:51:00,
2013-02-15 04:56:00,25.7,19.8,29.95,WNW,297,13.8,13.8,78,0.00,CLR,,0.00,0.0,WeatherDisplay:10.37,2013-02-15 09:56:00,
2013-02-15 05:01:00,25.6,19.7,29.95,West,278,15.0,15.0,78,0.00,CLR,,0.00,0.0,WeatherDisplay:10.37,2013-02-15 10:01:00,
2013-02-15 05:06:00,25.6,19.7,29.96,West,277,16.1,16.1,78,0.00,CLR,,0.00,0.0,WeatherDisplay:10.37,2013-02-15 10:06:00,
2013-02-15 05:11:00,25.5,19.6,29.96,West,274,13.8,13.8,78,0.00,CLR,,0.00,0.0,WeatherDisplay:10.37,2013-02-15 10:11:00,
2013-02-15 05:16:00,25.4,19.5,29.96,WNW,300,16.1,16.1,78,0.00,CLR,,0.00,0.0,WeatherDisplay:10.37,2013-02-15 10:16:00,
2013-02-15 05:21:00,25.4,19.8,29.97,West,280,9.2,9.2,79,0.00,CLR,,0.00,0.0,WeatherDisplay:10.37,2013-02-15 10:21:00,
2013-02-15 05:26:00,25.3,19.7,29.97,NW,326,18.4,18.4,79,0.00,CLR,,0.00,0.0,WeatherDisplay:10.37,2013-02-15 10:26:00,
2013-02-15 05:31:00,25.3,19.7,29.97,NW,325,9.2,9.2,79,0.00,CLR,,0.00,0.0,WeatherDisplay:10.37,2013-02-15 10:31:00,
2013-02-15 05:36:00,25.3,19.7,29.97,NNW,331,10.4,10.4,79,0.00,CLR,,0.00,0.0,WeatherDisplay:10.37,2013-02-15 10:36:00,
2013-02-15 05:41:00,25.3,19.7,29.97,WNW,291,11.5,11.5,79,0.00,CLR,,0.00,0.0,WeatherDisplay:10.37,2013-02-15 10:41:00,
2013-02-15 05:46:00,25.4,19.8,29.97,NW,322,13.8,13.8,79,0.00,CLR,,0.00,0.0,WeatherDisplay:10.37,2013-02-15 10:46:00,
2013-02-15 05:51:00,25.4,19.8,29.97,NW,313,8.1,8.1,79,0.00,CLR,,0.00,0.0,WeatherDisplay:10.37,2013-02-15 10:51:00,
2013-02-15 05:56:00,25.4,19.8,29.97,WNW,284,10.4,10.4,79,0.00,CLR,,0.00,0.0,WeatherDisplay:10.37,2013-02-15 10:56:00,
2013-02-15 06:01:00,25.4,19.8,29.97,NW,310,10.4,10.4,79,0.00,CLR,,0.00,0.0,WeatherDisplay:10.37,2013-02-15 11:01:00,
2013-02-15 06:06:00,25.4,20.1,29.98,WNW,289,7.0,7.0,80,0.00,CLR,,0.00,0.0,WeatherDisplay:10.37,2013-02-15 11:06:00,
2013-02-15 06:11:00,25.4,20.1,29.98,NW,319,8.1,8.1,80,0.00,CLR,,0.00,0.0,WeatherDisplay:10.37,2013-02-15 11:11:00,
2013-02-15 06:16:00,25.4,20.1,29.98,NW,304,6.9,6.9,80,0.00,CLR,,0.00,0.0,WeatherDisplay:10.37,2013-02-15 11:16:00,
2013-02-15 06:21:00,25.4,20.4,29.98,NW,305,6.9,6.9,81,0.00,CLR,,0.00,0.0,WeatherDisplay:10.37,2013-02-15 11:21:00,
2013-02-15 06:26:00,25.3,20.3,29.99,West,277,11.5,11.5,81,0.00,CLR,,0.00,0.0,WeatherDisplay:10.37,2013-02-15 11:26:00,
2013-02-15 06:31:00,25.2,19.6,29.99,WNW,285,13.8,13.8,79,0.00,CLR,,0.00,0.0,WeatherDisplay:10.37,2013-02-15 11:31:00,
2013-02-15 06:36:00,25.1,19.2,29.99,West,277,12.0,12.0,78,0.00,CLR,,0.00,0.0,WeatherDisplay:10.37,2013-02-15 11:36:00,
2013-02-15 06:41:00,24.8,18.9,29.99,WNW,288,11.5,11.5,78,0.00,CLR,,0.00,0.0,WeatherDisplay:10.37,2013-02-15 11:41:00,
2013-02-15 06:46:00,24.6,18.7,29.99,NW,317,9.2,9.2,78,0.00,CLR,,0.00,0.0,WeatherDisplay:10.37,2013-02-15 11:46:00,
2013-02-15 06:51:00,24.4,18.5,29.99,WNW,287,11.5,11.5,78,0.00,CLR,,0.00,0.0,WeatherDisplay:10.37,2013-02-15 11:51:00,
2013-02-15 06:56:00,24.2,18.3,30.00,WSW,243,6.9,6.9,78,0.00,CLR,,0.00,0.0,WeatherDisplay:10.37,2013-02-15 11:56:00,
2013-02-15 07:01:00,24.0,18.4,30.00,West,262,9.2,9.2,79,0.00,CLR,,0.00,0.0,WeatherDisplay:10.37,2013-02-15 12:01:00,
2013-02-15 07:06:00,23.9,18.3,30.00,West,268,11.5,11.5,79,0.00,CLR,,0.00,0.0,WeatherDisplay:10.37,2013-02-15 12:06:00,
2013-02-15 07:11:00,23.8,18.2,30.00,WNW,286,10.4,10.4,79,0.00,CLR,,0.00,0.0,WeatherDisplay:10.37,2013-02-15 12:11:00,
2013-02-15 07:16:00,23.7,18.1,30.00,West,281,9.2,9.2,79,0.00,CLR,,0.00,0.0,WeatherDisplay:10.37,2013-02-15 12:16:00,
2013-02-15 07:21:00,23.6,18.3,30.01,NW,306,10.4,10.4,80,0.00,CLR,,0.00,0.0,WeatherDisplay:10.37,2013-02-15 12:21:00,
2013-02-15 07:26:00,23.6,18.0,30.01,West,271,10.0,10.0,79,0.00,CLR,,0.00,0.0,WeatherDisplay:10.37,2013-02-15 12:26:00,
2013-02-15 07:31:00,23.7,18.1,30.01,West,267,9.2,9.2,79,0.00,CLR,,0.00,0.0,WeatherDisplay:10.37,2013-02-15 12:31:00,
2013-02-15 07:36:00,23.8,17.9,30.01,West,272,8.1,8.1,78,0.00,CLR,,0.00,5.0,WeatherDisplay:10.37,2013-02-15 12:36:00,
2013-02-15 07:41:00,23.8,17.9,30.01,West,271,10.4,10.4,78,0.00,CLR,,0.00,7.0,WeatherDisplay:10.37,2013-02-15 12:41:00,
2013-02-15 07:46:00,23.8,17.9,30.01,West,263,8.1,8.1,78,0.00,CLR,,0.00,11.0,WeatherDisplay:10.37,2013-02-15 12:46:00,
2013-02-15 07:51:00,23.9,17.7,30.02,West,275,11.5,11.5,77,0.00,CLR,,0.00,12.0,WeatherDisplay:10.37,2013-02-15 12:51:00,
2013-02-15 07:56:00,23.9,17.7,30.02,West,259,12.7,12.7,77,0.00,CLR,,0.00,18.0,WeatherDisplay:10.37,2013-02-15 12:56:00,
2013-02-15 08:01:00,24.0,17.5,30.02,WNW,285,10.4,10.4,76,0.00,CLR,,0.00,23.0,WeatherDisplay:10.37,2013-02-15 13:01:00,
2013-02-15 08:06:00,24.0,17.5,30.02,West,263,6.9,6.9,76,0.00,CLR,,0.00,26.0,WeatherDisplay:10.37,2013-02-15 13:06:00,
2013-02-15 08:11:00,24.0,17.5,30.02,WNW,291,11.5,11.5,76,0.00,CLR,,0.00,33.0,WeatherDisplay:10.37,2013-02-15 13:11:00,
2013-02-15 08:16:00,24.0,17.5,30.03,West,273,9.2,9.2,76,0.00,CLR,,0.00,35.0,WeatherDisplay:10.37,2013-02-15 13:16:00,
2013-02-15 08:21:00,23.9,17.1,30.03,WNW,300,12.7,12.7,75,0.00,CLR,,0.00,26.0,WeatherDisplay:10.37,2013-02-15 13:21:00,
2013-02-15 08:26:00,23.9,17.1,30.03,West,267,11.5,11.5,75,0.00,CLR,,0.00,25.0,WeatherDisplay:10.37,2013-02-15 13:26:00,
2013-02-15 08:31:00,24.0,17.2,30.03,West,269,11.0,11.0,75,0.00,CLR,,0.00,65.0,WeatherDisplay:10.37,2013-02-15 13:31:00,
2013-02-15 08:36:00,24.2,17.4,30.04,NW,318,12.0,12.0,75,0.00,CLR,,0.00,70.0,WeatherDisplay:10.37,2013-02-15 13:36:00,
2013-02-15 08:41:00,24.5,17.4,30.04,WNW,286,11.5,11.5,74,0.00,CLR,,0.00,100.0,WeatherDisplay:10.37,2013-02-15 13:41:00,
2013-02-15 08:46:00,24.7,17.6,30.04,WNW,290,11.5,11.5,74,0.00,CLR,,0.00,121.0,WeatherDisplay:10.37,2013-02-15 13:46:00,
2013-02-15 08:51:00,24.9,17.5,30.04,West,279,14.0,14.0,73,0.00,CLR,,0.00,134.0,WeatherDisplay:10.37,2013-02-15 13:51:00,
2013-02-15 08:56:00,24.9,17.5,30.05,WNW,294,14.0,14.0,73,0.00,CLR,,0.00,118.0,WeatherDisplay:10.37,2013-02-15 13:56:00,
2013-02-15 09:01:00,25.2,17.8,30.05,West,259,10.0,10.0,73,0.00,OVC,,0.00,125.0,WeatherDisplay:10.37,2013-02-15 14:01:00,
2013-02-15 09:06:00,25.4,17.9,30.05,West,281,11.5,11.5,73,0.00,OVC,,0.00,76.0,WeatherDisplay:10.37,2013-02-15 14:06:00,
2013-02-15 09:11:00,25.2,17.1,30.05,NW,316,11.5,11.5,71,0.00,OVC,,0.00,155.0,WeatherDisplay:10.37,2013-02-15 14:11:00,
2013-02-15 09:16:00,25.4,17.3,30.05,NW,319,13.8,13.8,71,0.00,OVC,,0.00,84.0,WeatherDisplay:10.37,2013-02-15 14:16:00,
2013-02-15 09:21:00,25.3,17.2,30.05,NNW,329,12.7,12.7,71,0.00,OVC,,0.00,58.0,WeatherDisplay:10.37,2013-02-15 14:21:00,
2013-02-15 09:26:00,25.2,17.1,30.05,WNW,302,12.7,12.7,71,0.00,OVC,,0.00,149.0,WeatherDisplay:10.37,2013-02-15 14:26:00,
2013-02-15 09:31:00,25.3,17.2,30.05,North,349,11.5,11.5,71,0.00,OVC,,0.00,176.0,WeatherDisplay:10.37,2013-02-15 14:31:00,
2013-02-15 09:36:00,25.6,17.5,30.05,WNW,289,9.0,9.0,71,0.00,OVC,,0.00,199.0,WeatherDisplay:10.37,2013-02-15 14:36:00,
2013-02-15 09:41:00,25.9,17.1,30.06,NNW,345,15.0,15.0,69,0.00,OVC,,0.00,281.0,WeatherDisplay:10.37,2013-02-15 14:41:00,
2013-02-15 09:46:00,25.9,16.8,30.06,West,279,16.1,16.1,68,0.00,OVC,,0.00,348.0,WeatherDisplay:10.37,2013-02-15 14:46:00,
2013-02-15 09:51:00,25.9,17.1,30.06,WNW,282,11.5,11.5,69,0.00,OVC,,0.00,130.0,WeatherDisplay:10.37,2013-02-15 14:51:00,
2013-02-15 09:56:00,26.3,17.5,30.06,WNW,302,11.5,11.5,69,0.00,OVC,,0.00,489.0,WeatherDisplay:10.37,2013-02-15 14:56:00,
2013-02-15 10:01:00,26.5,17.7,30.06,North,5,10.4,10.4,69,0.00,OVC,,0.00,155.0,WeatherDisplay:10.37,2013-02-15 15:01:00,
2013-02-15 10:06:00,26.4,16.9,30.06,NNW,348,15.0,15.0,67,0.00,OVC,,0.00,137.0,WeatherDisplay:10.37,2013-02-15 15:06:00,
2013-02-15 10:11:00,26.0,16.9,30.06,NW,313,19.6,19.6,68,0.00,OVC,,0.00,142.0,WeatherDisplay:10.37,2013-02-15 15:11:00,
2013-02-15 10:16:00,25.9,16.8,30.06,WNW,300,9.2,9.2,68,0.00,OVC,,0.00,571.0,WeatherDisplay:10.37,2013-02-15 15:16:00,
2013-02-15 10:21:00,26.2,16.4,30.06,NNW,328,19.6,19.6,66,0.00,OVC,,0.00,153.0,WeatherDisplay:10.37,2013-02-15 15:21:00,
2013-02-15 10:26:00,25.8,16.0,30.07,WNW,295,17.3,17.3,66,0.00,OVC,,0.00,192.0,WeatherDisplay:10.37,2013-02-15 15:26:00,
2013-02-15 10:31:00,25.6,16.2,30.06,NW,315,9.2,9.2,67,0.00,OVC,,0.00,179.0,WeatherDisplay:10.37,2013-02-15 15:31:00,
2013-02-15 10:36:00,25.7,15.9,30.07,NW,325,16.1,16.1,66,0.00,OVC,,0.00,258.0,WeatherDisplay:10.37,2013-02-15 15:36:00,
2013-02-15 10:41:00,25.9,16.4,30.07,WNW,302,15.0,15.0,67,0.00,OVC,,0.00,160.0,WeatherDisplay:10.37,2013-02-15 15:41:00,
2013-02-15 10:46:00,25.7,15.6,30.07,WNW,285,13.8,13.8,65,0.00,OVC,,0.00,178.0,WeatherDisplay:10.37,2013-02-15 15:46:00,
2013-02-15 10:51:00,25.6,15.1,30.07,NW,323,13.8,13.8,64,0.00,OVC,,0.00,200.0,WeatherDisplay:10.37,2013-02-15 15:51:00,
2013-02-15 10:56:00,25.7,15.6,30.07,WNW,298,11.5,11.5,65,0.00,OVC,,0.00,174.0,WeatherDisplay:10.37,2013-02-15 15:56:00,
2013-02-15 11:01:00,25.8,15.6,30.07,West,281,13.8,13.8,65,0.00,OVC,,0.00,149.0,WeatherDisplay:10.37,2013-02-15 16:01:00,
2013-02-15 11:06:00,25.7,15.2,30.07,WNW,298,10.0,10.0,64,0.00,OVC,,0.00,135.0,WeatherDisplay:10.37,2013-02-15 16:06:00,
2013-02-15 11:11:00,25.7,15.6,30.07,SW,232,11.5,11.5,65,0.00,OVC,,0.00,183.0,WeatherDisplay:10.37,2013-02-15 16:11:00,
2013-02-15 11:16:00,25.7,15.2,30.07,NW,305,11.5,11.5,64,0.00,OVC,,0.00,206.0,WeatherDisplay:10.37,2013-02-15 16:16:00,
2013-02-15 11:21:00,25.9,15.4,30.07,WNW,300,16.0,16.0,64,0.00,OVC,,0.00,278.0,WeatherDisplay:10.37,2013-02-15 16:21:00,
2013-02-15 11:26:00,25.9,15.0,30.07,NW,316,12.7,12.7,63,0.00,OVC,,0.00,221.0,WeatherDisplay:10.37,2013-02-15 16:26:00,
2013-02-15 11:31:00,26.2,15.3,30.07,NW,313,11.5,11.5,63,0.00,OVC,,0.00,218.0,WeatherDisplay:10.37,2013-02-15 16:31:00,
2013-02-15 11:36:00,26.3,15.4,30.07,NW,319,13.8,13.8,63,0.00,OVC,,0.00,176.0,WeatherDisplay:10.37,2013-02-15 16:36:00,
2013-02-15 11:41:00,26.3,15.4,30.07,NW,320,10.4,10.4,63,0.00,OVC,,0.00,200.0,WeatherDisplay:10.37,2013-02-15 16:41:00,
2013-02-15 11:46:00,26.2,14.9,30.07,NW,315,11.5,11.5,62,0.00,OVC,,0.00,188.0,WeatherDisplay:10.37,2013-02-15 16:46:00,
2013-02-15 11:51:00,26.1,14.8,30.07,NW,317,12.0,12.0,62,0.00,OVC,,0.00,185.0,WeatherDisplay:10.37,2013-02-15 16:51:00,
2013-02-15 11:56:00,25.9,13.5,30.08,NW,311,12.7,12.7,59,0.00,OVC,,0.00,151.0,WeatherDisplay:10.37,2013-02-15 16:56:00,
2013-02-15 12:01:00,26.1,14.1,30.08,WNW,295,11.5,11.5,60,0.00,OVC,,0.00,246.0,WeatherDisplay:10.37,2013-02-15 17:01:00,
2013-02-15 12:06:00,26.6,14.6,30.08,West,273,12.7,12.7,60,0.00,OVC,,0.00,355.0,WeatherDisplay:10.37,2013-02-15 17:06:00,
2013-02-15 12:11:00,26.9,14.9,30.07,West,259,9.2,9.2,60,0.00,OVC,,0.00,255.0,WeatherDisplay:10.37,2013-02-15 17:11:00,
2013-02-15 12:16:00,26.9,15.2,30.07,NW,313,12.7,12.7,61,0.00,OVC,,0.00,230.0,WeatherDisplay:10.37,2013-02-15 17:16:00,
2013-02-15 12:21:00,26.9,14.9,30.07,WNW,284,16.0,16.0,60,0.00,OVC,,0.00,230.0,WeatherDisplay:10.37,2013-02-15 17:21:00,
2013-02-15 12:26:00,26.7,14.7,30.07,West,277,15.0,15.0,60,0.00,OVC,,0.00,227.0,WeatherDisplay:10.37,2013-02-15 17:26:00,
2013-02-15 12:31:00,26.7,15.4,30.07,West,279,10.4,10.4,62,0.00,OVC,,0.00,229.0,WeatherDisplay:10.37,2013-02-15 17:31:00,
2013-02-15 12:36:00,26.7,15.4,30.07,WSW,246,12.7,12.7,62,0.00,OVC,,0.00,232.0,WeatherDisplay:10.37,2013-02-15 17:36:00,
2013-02-15 12:41:00,26.6,14.9,30.07,West,275,12.7,12.7,61,0.00,OVC,,0.00,202.0,WeatherDisplay:10.37,2013-02-15 17:41:00,
2013-02-15 12:46:00,26.8,15.9,30.07,NW,308,11.5,11.5,63,0.00,OVC,,0.00,195.0,WeatherDisplay:10.37,2013-02-15 17:46:00,
2013-02-15 12:51:00,26.8,15.5,30.07,NW,306,11.5,11.5,62,0.00,OVC,,0.00,163.0,WeatherDisplay:10.37,2013-02-15 17:51:00,
2013-02-15 12:56:00,26.7,15.0,30.07,West,271,11.5,11.5,61,0.00,OVC,,0.00,144.0,WeatherDisplay:10.37,2013-02-15 17:56:00,
2013-02-15 13:01:00,26.6,16.1,30.07,NNW,330,6.9,6.9,64,0.00,OVC,,0.00,137.0,WeatherDisplay:10.37,2013-02-15 18:01:00,
2013-02-15 13:06:00,26.6,15.7,30.07,NW,326,11.5,11.5,63,0.00,OVC,,0.00,156.0,WeatherDisplay:10.37,2013-02-15 18:06:00,
2013-02-15 13:11:00,26.6,15.3,30.07,NNW,336,10.4,10.4,62,0.00,OVC,,0.00,174.0,WeatherDisplay:10.37,2013-02-15 18:11:00,
2013-02-15 13:16:00,26.8,15.9,30.07,NW,311,11.5,11.5,63,0.00,OVC,,0.00,181.0,WeatherDisplay:10.37,2013-02-15 18:16:00,
2013-02-15 13:21:00,26.8,15.5,30.07,NW,304,11.5,11.5,62,0.00,OVC,,0.00,165.0,WeatherDisplay:10.37,2013-02-15 18:21:00,
2013-02-15 13:27:00,26.6,15.7,30.07,West,266,15.0,15.0,63,0.00,OVC,,0.00,158.0,WeatherDisplay:10.37,2013-02-15 18:27:00,
2013-02-15 13:32:00,26.5,15.2,30.07,WNW,291,13.8,13.8,62,0.00,OVC,,0.00,162.0,WeatherDisplay:10.37,2013-02-15 18:32:00,
2013-02-15 13:37:00,26.6,15.7,30.07,WNW,298,9.2,9.2,63,0.00,CLR,,0.00,158.0,WeatherDisplay:10.37,2013-02-15 18:37:00,
2013-02-15 13:42:00,26.7,15.4,30.07,WNW,287,15.0,15.0,62,0.00,CLR,,0.00,167.0,WeatherDisplay:10.37,2013-02-15 18:42:00,
2013-02-15 13:47:00,26.6,15.7,30.07,NW,308,11.5,11.5,63,0.00,CLR,,0.00,149.0,WeatherDisplay:10.37,2013-02-15 18:47:00,
2013-02-15 13:52:00,26.6,15.7,30.07,NW,312,16.1,16.1,63,0.00,CLR,,0.00,169.0,WeatherDisplay:10.37,2013-02-15 18:52:00,
2013-02-15 13:57:00,26.6,15.7,30.07,West,274,15.0,15.0,63,0.00,CLR,,0.00,174.0,WeatherDisplay:10.37,2013-02-15 18:57:00,
2013-02-15 14:02:00,26.5,15.6,30.07,West,263,8.1,8.1,63,0.00,CLR,,0.00,153.0,WeatherDisplay:10.37,2013-02-15 19:02:00,
2013-02-15 14:07:00,26.6,15.7,30.07,WNW,296,6.0,6.0,63,0.00,CLR,,0.00,183.0,WeatherDisplay:10.37,2013-02-15 19:07:00,
2013-02-15 14:12:00,26.8,15.5,30.07,NW,304,11.5,11.5,62,0.00,CLR,,0.00,204.0,WeatherDisplay:10.37,2013-02-15 19:12:00,
2013-02-15 14:17:00,26.7,14.7,30.07,WNW,292,11.5,11.5,60,0.00,CLR,,0.00,234.0,WeatherDisplay:10.37,2013-02-15 19:17:00,
2013-02-15 14:22:00,26.9,14.9,30.07,WNW,303,6.9,6.9,60,0.00,CLR,,0.00,229.0,WeatherDisplay:10.37,2013-02-15 19:22:00,
2013-02-15 14:27:00,27.0,14.6,30.07,WSW,245,10.4,10.4,59,0.00,CLR,,0.00,214.0,WeatherDisplay:10.37,2013-02-15 19:27:00,
2013-02-15 14:32:00,27.1,14.7,30.07,NW,311,9.2,9.2,59,0.00,CLR,,0.00,193.0,WeatherDisplay:10.37,2013-02-15 19:32:00,
2013-02-15 14:37:00,27.2,15.5,30.07,West,270,10.4,10.4,61,0.00,CLR,,0.00,199.0,WeatherDisplay:10.37,2013-02-15 19:37:00,
2013-02-15 14:42:00,27.1,15.4,30.07,WNW,299,15.0,15.0,61,0.00,CLR,,0.00,190.0,WeatherDisplay:10.37,2013-02-15 19:42:00,
2013-02-15 14:47:00,26.7,15.8,30.07,West,280,13.8,13.8,63,0.00,CLR,,0.00,214.0,WeatherDisplay:10.37,2013-02-15 19:47:00,
2013-02-15 14:52:00,26.7,15.0,30.07,WNW,292,11.5,11.5,61,0.00,CLR,,0.00,244.0,WeatherDisplay:10.37,2013-02-15 19:52:00,
2013-02-15 14:57:00,26.9,15.2,30.07,West,271,9.2,9.2,61,0.00,CLR,,0.00,218.0,WeatherDisplay:10.37,2013-02-15 19:57:00,
2013-02-15 15:02:00,26.9,15.6,30.07,WNW,287,13.8,13.8,62,0.00,CLR,,0.00,160.0,WeatherDisplay:10.37,2013-02-15 20:02:00,
2013-02-15 15:07:00,26.8,15.1,30.07,WNW,302,10.4,10.4,61,0.00,FEW,,0.00,148.0,WeatherDisplay:10.37,2013-02-15 20:07:00,
2013-02-15 15:12:00,26.9,16.0,30.07,WNW,295,11.5,11.5,63,0.00,SCT,,0.00,149.0,WeatherDisplay:10.37,2013-02-15 20:12:00,
2013-02-15 15:17:00,27.0,14.9,30.07,NW,305,11.5,11.5,60,0.00,SCT,,0.00,135.0,WeatherDisplay:10.37,2013-02-15 20:17:00,
2013-02-15 15:22:00,27.0,14.9,30.07,WNW,297,10.0,10.0,60,0.00,SCT,,0.00,137.0,WeatherDisplay:10.37,2013-02-15 20:22:00,
2013-02-15 15:27:00,27.0,14.6,30.07,West,281,8.1,8.1,59,0.00,SCT,,0.00,141.0,WeatherDisplay:10.37,2013-02-15 20:27:00,
2013-02-15 15:32:00,27.1,15.0,30.07,WNW,285,6.9,6.9,60,0.00,SCT,,0.00,153.0,WeatherDisplay:10.37,2013-02-15 20:32:00,
2013-02-15 15:37:00,27.3,15.2,30.08,WNW,296,10.4,10.4,60,0.00,BKN,,0.00,132.0,WeatherDisplay:10.37,2013-02-15 20:37:00,
2013-02-15 15:42:00,27.2,14.8,30.08,West,268,12.7,12.7,59,0.00,BKN,,0.00,135.0,WeatherDisplay:10.37,2013-02-15 20:42:00,
2013-02-15 15:47:00,27.0,14.9,30.08,NNW,330,11.5,11.5,60,0.00,BKN,,0.00,120.0,WeatherDisplay:10.37,2013-02-15 20:47:00,
2013-02-15 15:52:00,27.1,14.7,30.08,NW,310,12.7,12.7,59,0.00,BKN,,0.00,113.0,WeatherDisplay:10.37,2013-02-15 20:52:00,
2013-02-15 15:57:00,27.0,14.6,30.08,WNW,290,6.9,6.9,59,0.00,BKN,,0.00,132.0,WeatherDisplay:10.37,2013-02-15 20:57:00,
2013-02-15 16:02:00,27.1,15.0,30.08,WNW,303,11.5,11.5,60,0.00,BKN,,0.00,102.0,WeatherDisplay:10.37,2013-02-15 21:02:00,
2013-02-15 16:07:00,27.0,15.3,30.08,West,268,11.5,11.5,61,0.00,BKN,,0.00,83.0,WeatherDisplay:10.37,2013-02-15 21:07:00,
2013-02-15 16:12:00,27.0,15.3,30.08,WNW,290,12.7,12.7,61,0.00,BKN,,0.00,83.0,WeatherDisplay:10.37,2013-02-15 21:12:00,
2013-02-15 16:17:00,26.7,15.0,30.08,WNW,295,11.5,11.5,61,0.00,BKN,,0.00,79.0,WeatherDisplay:10.37,2013-02-15 21:17:00,
2013-02-15 16:22:00,26.8,15.5,30.09,North,350,9.2,9.2,62,0.00,BKN,,0.00,76.0,WeatherDisplay:10.37,2013-02-15 21:22:00,
2013-02-15 16:27:00,26.8,15.1,30.09,NW,326,10.4,10.4,61,0.00,BKN,,0.00,79.0,WeatherDisplay:10.37,2013-02-15 21:27:00,
2013-02-15 16:32:00,26.7,14.7,30.09,WNW,288,11.5,11.5,60,0.00,BKN,,0.00,72.0,WeatherDisplay:10.37,2013-02-15 21:32:00,
2013-02-15 16:37:00,26.7,14.7,30.09,WNW,302,9.2,9.2,60,0.00,BKN,,0.00,60.0,WeatherDisplay:10.37,2013-02-15 21:37:00,
2013-02-15 16:42:00,26.7,14.7,30.09,West,279,11.5,11.5,60,0.00,BKN,,0.00,54.0,WeatherDisplay:10.37,2013-02-15 21:42:00,
2013-02-15 16:47:00,26.6,14.6,30.09,WNW,284,12.7,12.7,60,0.00,BKN,,0.00,67.0,WeatherDisplay:10.37,2013-02-15 21:47:00,
2013-02-15 16:52:00,26.5,14.9,30.09,WNW,296,8.1,8.1,61,0.00,BKN,,0.00,60.0,WeatherDisplay:10.37,2013-02-15 21:52:00,
2013-02-15 16:57:00,26.6,14.9,30.09,NW,311,11.5,11.5,61,0.00,BKN,,0.00,49.0,WeatherDisplay:10.37,2013-02-15 21:57:00,
2013-02-15 17:02:00,26.7,15.0,30.09,West,279,8.1,8.1,61,0.00,BKN,,0.00,42.0,WeatherDisplay:10.37,2013-02-15 22:02:00,
2013-02-15 17:07:00,26.6,14.9,30.09,WNW,301,9.2,9.2,61,0.00,BKN,,0.00,30.0,WeatherDisplay:10.37,2013-02-15 22:07:00,
2013-02-15 17:12:00,26.6,14.6,30.09,WNW,290,11.5,11.5,60,0.00,BKN,,0.00,35.0,WeatherDisplay:10.37,2013-02-15 22:12:00,
2013-02-15 17:17:00,26.6,14.6,30.10,West,269,11.5,11.5,60,0.00,CLR,,0.00,26.0,WeatherDisplay:10.37,2013-02-15 22:17:00,
2013-02-15 17:22:00,26.5,14.5,30.10,WNW,286,5.8,5.8,60,0.00,CLR,,0.00,23.0,WeatherDisplay:10.37,2013-02-15 22:22:00,
2013-02-15 17:27:00,26.5,14.1,30.10,NW,313,9.2,9.2,59,0.00,CLR,,0.00,21.0,WeatherDisplay:10.37,2013-02-15 22:27:00,
2013-02-15 17:32:00,26.5,14.5,30.10,WNW,296,10.4,10.4,60,0.00,CLR,,0.00,23.0,WeatherDisplay:10.37,2013-02-15 22:32:00,
2013-02-15 17:37:00,26.5,14.5,30.10,WNW,292,11.5,11.5,60,0.00,CLR,,0.00,16.0,WeatherDisplay:10.37,2013-02-15 22:37:00,
2013-02-15 17:42:00,26.4,15.1,30.10,WNW,296,8.1,8.1,62,0.00,CLR,,0.00,12.0,WeatherDisplay:10.37,2013-02-15 22:42:00,
2013-02-15 17:47:00,26.4,15.1,30.10,NW,316,10.0,10.0,62,0.00,CLR,,0.00,11.0,WeatherDisplay:10.37,2013-02-15 22:47:00,
2013-02-15 17:52:00,26.3,15.8,30.10,WNW,292,10.4,10.4,64,0.00,CLR,,0.00,7.0,WeatherDisplay:10.37,2013-02-15 22:52:00,
2013-02-15 17:57:00,26.3,15.8,30.10,WNW,302,11.5,11.5,64,0.00,CLR,,0.00,7.0,WeatherDisplay:10.37,2013-02-15 22:57:00,
2013-02-15 18:02:00,26.3,16.1,30.10,WNW,295,8.0,8.0,65,0.00,CLR,,0.00,5.0,WeatherDisplay:10.37,2013-02-15 23:02:00,
2013-02-15 18:07:00,26.2,16.4,30.11,WNW,288,6.9,6.9,66,0.00,CLR,,0.00,0.0,WeatherDisplay:10.37,2013-02-15 23:07:00,
2013-02-15 18:12:00,26.1,16.3,30.11,WNW,287,5.8,5.8,66,0.00,CLR,,0.00,0.0,WeatherDisplay:10.37,2013-02-15 23:12:00,
2013-02-15 18:17:00,26.1,16.3,30.11,WNW,291,5.8,5.8,66,0.00,CLR,,0.00,0.0,WeatherDisplay:10.37,2013-02-15 23:17:00,
2013-02-15 18:22:00,26.1,15.9,30.11,NW,313,9.2,9.2,65,0.00,CLR,,0.00,0.0,WeatherDisplay:10.37,2013-02-15 23:22:00,
2013-02-15 18:28:00,26.1,15.9,30.11,West,272,6.9,6.9,65,0.00,CLR,,0.00,0.0,WeatherDisplay:10.37,2013-02-15 23:28:00,
2013-02-15 18:33:00,26.1,16.3,30.11,West,280,6.0,6.0,66,0.00,CLR,,0.00,0.0,WeatherDisplay:10.37,2013-02-15 23:33:00,
2013-02-15 18:38:00,26.1,16.3,30.11,NW,304,8.1,8.1,66,0.00,CLR,,0.00,0.0,WeatherDisplay:10.37,2013-02-15 23:38:00,
2013-02-15 18:43:00,26.2,16.4,30.11,WSW,257,3.5,3.5,66,0.00,CLR,,0.00,0.0,WeatherDisplay:10.37,2013-02-15 23:43:00,
2013-02-15 18:48:00,26.2,16.4,30.11,West,265,4.6,4.6,66,0.00,CLR,,0.00,0.0,WeatherDisplay:10.37,2013-02-15 23:48:00,
2013-02-15 18:53:00,26.1,16.3,30.11,West,275,5.0,5.0,66,0.00,CLR,,0.00,0.0,WeatherDisplay:10.37,2013-02-15 23:53:00,
2013-02-15 18:58:00,26.1,16.6,30.11,West,275,2.3,2.3,67,0.00,CLR,,0.00,0.0,WeatherDisplay:10.37,2013-02-15 23:58:00,
2013-02-15 19:03:00,26.1,16.6,30.11,West,279,5.8,5.8,67,0.00,CLR,,0.00,0.0,WeatherDisplay:10.37,2013-02-16 00:03:00,
2013-02-15 19:08:00,26.2,16.7,30.12,West,264,3.5,3.5,67,0.00,CLR,,0.00,0.0,WeatherDisplay:10.37,2013-02-16 00:08:00,
2013-02-15 19:13:00,26.2,16.7,30.12,WSW,245,7.0,7.0,67,0.00,CLR,,0.00,0.0,WeatherDisplay:10.37,2013-02-16 00:13:00,
2013-02-15 19:18:00,26.2,16.7,30.12,West,277,3.5,3.5,67,0.00,CLR,,0.00,0.0,WeatherDisplay:10.37,2013-02-16 00:18:00,
2013-02-15 19:23:00,26.3,17.2,30.12,West,273,6.0,6.0,68,0.00,CLR,,0.00,0.0,WeatherDisplay:10.37,2013-02-16 00:23:00,
2013-02-15 19:28:00,26.3,16.8,30.12,WNW,288,8.1,8.1,67,0.00,CLR,,0.00,0.0,WeatherDisplay:10.37,2013-02-16 00:28:00,
2013-02-15 19:33:00,26.3,17.2,30.12,West,275,9.2,9.2,68,0.00,CLR,,0.00,0.0,WeatherDisplay:10.37,2013-02-16 00:33:00,
2013-02-15 19:38:00,26.2,17.4,30.12,WSW,252,7.0,7.0,69,0.00,CLR,,0.00,0.0,WeatherDisplay:10.37,2013-02-16 00:38:00,
2013-02-15 19:43:00,26.1,17.6,30.12,West,273,4.6,4.6,70,0.00,CLR,,0.00,0.0,WeatherDisplay:10.37,2013-02-16 00:43:00,
2013-02-15 19:48:00,26.1,18.0,30.12,WNW,288,11.5,11.5,71,0.00,CLR,,0.00,0.0,WeatherDisplay:10.37,2013-02-16 00:48:00,
2013-02-15 19:53:00,26.0,17.9,30.12,West,281,12.0,12.0,71,0.00,CLR,,0.00,0.0,WeatherDisplay:10.37,2013-02-16 00:53:00,
2013-02-15 19:58:00,26.0,17.9,30.12,West,279,5.8,5.8,71,0.00,CLR,,0.00,0.0,WeatherDisplay:10.37,2013-02-16 00:58:00,
2013-02-15 20:04:00,26.0,18.2,30.12,WNW,291,5.8,5.8,72,0.00,CLR,,0.00,0.0,WeatherDisplay:10.37,2013-02-16 01:04:00,
2013-02-15 20:09:00,26.0,18.2,30.12,NW,320,5.0,5.0,72,0.00,CLR,,0.00,0.0,WeatherDisplay:10.37,2013-02-16 01:09:00,
2013-02-15 20:14:00,25.9,18.4,30.12,West,273,9.0,9.0,73,0.00,CLR,,0.00,0.0,WeatherDisplay:10.37,2013-02-16 01:14:00,
2013-02-15 20:19:00,25.9,18.1,30.12,West,273,11.5,11.5,72,0.00,CLR,,0.00,0.0,WeatherDisplay:10.37,2013-02-16 01:19:00,
2013-02-15 20:24:00,25.9,18.1,30.12,West,281,4.0,4.0,72,0.00,CLR,,0.00,0.0,WeatherDisplay:10.37,2013-02-16 01:24:00,
2013-02-15 20:29:00,25.9,18.1,30.12,West,273,8.1,8.1,72,0.00,CLR,,0.00,0.0,WeatherDisplay:10.37,2013-02-16 01:29:00,
2013-02-15 20:34:00,25.9,18.1,30.12,West,272,3.5,3.5,72,0.00,CLR,,0.00,0.0,WeatherDisplay:10.37,2013-02-16 01:34:00,
2013-02-15 20:39:00,25.8,17.7,30.12,West,281,8.1,8.1,71,0.00,CLR,,0.00,0.0,WeatherDisplay:10.37,2013-02-16 01:39:00,
2013-02-15 20:44:00,25.8,17.7,30.12,WSW,241,8.0,8.0,71,0.00,CLR,,0.00,0.0,WeatherDisplay:10.37,2013-02-16 01:44:00,
2013-02-15 20:49:00,25.9,17.1,30.12,West,272,10.4,10.4,69,0.00,CLR,,0.00,0.0,WeatherDisplay:10.37,2013-02-16 01:49:00,
2013-02-15 20:54:00,25.9,17.1,30.12,West,275,4.6,4.6,69,0.00,CLR,,0.00,0.0,WeatherDisplay:10.37,2013-02-16 01:54:00,
2013-02-15 20:59:00,25.9,17.1,30.12,WNW,292,11.5,11.5,69,0.00,CLR,,0.00,0.0,WeatherDisplay:10.37,2013-02-16 01:59:00,
2013-02-15 21:04:00,25.9,17.5,30.12,WNW,290,9.2,9.2,70,0.00,CLR,,0.00,0.0,WeatherDisplay:10.37,2013-02-16 02:04:00,
2013-02-15 21:09:00,25.9,17.1,30.12,NW,311,9.2,9.2,69,0.00,CLR,,0.00,0.0,WeatherDisplay:10.37,2013-02-16 02:09:00,
2013-02-15 21:14:00,25.9,17.1,30.12,WNW,285,7.0,7.0,69,0.00,CLR,,0.00,0.0,WeatherDisplay:10.37,2013-02-16 02:14:00,
2013-02-15 21:19:00,25.8,17.7,30.13,NW,315,11.5,11.5,71,0.00,CLR,,0.00,0.0,WeatherDisplay:10.37,2013-02-16 02:19:00,
2013-02-15 21:24:00,25.6,18.1,30.13,NW,307,9.2,9.2,73,0.00,CLR,,0.00,0.0,WeatherDisplay:10.37,2013-02-16 02:24:00,
2013-02-15 21:29:00,25.2,19.3,30.13,NW,318,11.5,11.5,78,0.00,CLR,,0.00,0.0,WeatherDisplay:10.37,2013-02-16 02:29:00,
2013-02-15 21:34:00,24.5,19.5,30.13,NW,311,15.0,15.0,81,0.00,CLR,,0.00,0.0,WeatherDisplay:10.37,2013-02-16 02:34:00,
2013-02-15 21:39:00,24.0,19.3,30.13,NNW,327,10.0,10.0,82,0.00,CLR,,0.00,0.0,WeatherDisplay:10.37,2013-02-16 02:39:00,
2013-02-15 21:44:00,23.8,19.4,30.13,NW,323,10.4,10.4,83,0.00,CLR,,0.00,0.0,WeatherDisplay:10.37,2013-02-16 02:44:00,
2013-02-15 21:49:00,23.7,19.0,30.13,NNW,327,11.5,11.5,82,0.00,CLR,,0.00,0.0,WeatherDisplay:10.37,2013-02-16 02:49:00,
2013-02-15 21:54:00,23.6,18.6,30.13,NW,306,11.5,11.5,81,0.00,CLR,,0.00,0.0,WeatherDisplay:10.37,2013-02-16 02:54:00,
2013-02-15 21:59:00,23.7,18.7,30.13,NW,307,9.2,9.2,81,0.00,CLR,,0.00,0.0,WeatherDisplay:10.37,2013-02-16 02:59:00,
2013-02-15 22:04:00,23.7,18.1,30.13,WNW,288,10.4,10.4,79,0.00,CLR,,0.00,0.0,WeatherDisplay:10.37,2013-02-16 03:04:00,
2013-02-15 22:09:00,23.8,17.6,30.13,NW,314,11.5,11.5,77,0.00,CLR,,0.00,0.0,WeatherDisplay:10.37,2013-02-16 03:09:00,
2013-02-15 22:14:00,23.8,16.4,30.14,WNW,288,9.2,9.2,73,0.00,CLR,,0.00,0.0,WeatherDisplay:10.37,2013-02-16 03:14:00,
2013-02-15 22:19:00,23.9,15.9,30.14,NW,325,11.5,11.5,71,0.00,CLR,,0.00,0.0,WeatherDisplay:10.37,2013-02-16 03:19:00,
2013-02-15 22:24:00,23.9,15.5,30.14,WNW,299,12.0,12.0,70,0.00,CLR,,0.00,0.0,WeatherDisplay:10.37,2013-02-16 03:24:00,
2013-02-15 22:29:00,23.8,15.1,30.14,West,279,15.0,15.0,69,0.00,CLR,,0.00,0.0,WeatherDisplay:10.37,2013-02-16 03:29:00,
2013-02-15 22:34:00,23.8,15.1,30.13,WNW,288,13.8,13.8,69,0.00,CLR,,0.00,0.0,WeatherDisplay:10.37,2013-02-16 03:34:00,
2013-02-15 22:39:00,23.7,15.3,30.13,NW,308,9.2,9.2,70,0.00,CLR,,0.00,0.0,WeatherDisplay:10.37,2013-02-16 03:39:00,
2013-02-15 22:44:00,23.6,15.6,30.13,WNW,294,8.0,8.0,71,0.00,CLR,,0.00,0.0,WeatherDisplay:10.37,2013-02-16 03:44:00,
2013-02-15 22:49:00,23.6,15.9,30.13,WNW,300,11.5,11.5,72,0.00,CLR,,0.00,0.0,WeatherDisplay:10.37,2013-02-16 03:49:00,
2013-02-15 22:54:00,23.5,15.8,30.13,West,272,17.3,17.3,72,0.00,CLR,,0.00,0.0,WeatherDisplay:10.37,2013-02-16 03:54:00,
2013-02-15 22:59:00,23.4,15.7,30.13,NW,321,11.5,11.5,72,0.00,CLR,,0.00,0.0,WeatherDisplay:10.37,2013-02-16 03:59:00,
2013-02-15 23:04:00,23.3,15.9,30.13,West,263,12.7,12.7,73,0.00,CLR,,0.00,0.0,WeatherDisplay:10.37,2013-02-16 04:04:00,
2013-02-15 23:09:00,23.3,15.6,30.13,NW,323,9.2,9.2,72,0.00,CLR,,0.00,0.0,WeatherDisplay:10.37,2013-02-16 04:09:00,
2013-02-15 23:14:00,23.2,15.8,30.12,WNW,300,10.4,10.4,73,0.00,CLR,,0.00,0.0,WeatherDisplay:10.37,2013-02-16 04:14:00,
2013-02-15 23:19:00,23.1,15.7,30.12,WNW,290,6.9,6.9,73,0.00,CLR,,0.00,0.0,WeatherDisplay:10.37,2013-02-16 04:19:00,
2013-02-15 23:24:00,23.1,16.0,30.13,WNW,291,6.9,6.9,74,0.00,CLR,,0.00,0.0,WeatherDisplay:10.37,2013-02-16 04:24:00,
2013-02-15 23:29:00,23.0,15.9,30.12,WNW,301,5.0,5.0,74,0.00,CLR,,0.00,0.0,WeatherDisplay:10.37,2013-02-16 04:29:00,
2013-02-15 23:34:00,22.9,15.8,30.12,West,275,5.0,5.0,74,0.00,CLR,,0.00,0.0,WeatherDisplay:10.37,2013-02-16 04:34:00,
2013-02-15 23:39:00,22.7,15.3,30.12,NW,324,5.8,5.8,73,0.00,CLR,,0.00,0.0,WeatherDisplay:10.37,2013-02-16 04:39:00,
2013-02-15 23:44:00,22.4,14.7,30.12,NW,308,11.5,11.5,72,0.00,CLR,,0.00,0.0,WeatherDisplay:10.37,2013-02-16 04:44:00,
2013-02-15 23:49:00,22.1,14.4,30.12,WNW,300,6.0,6.0,72,0.00,CLR,,0.00,0.0,WeatherDisplay:10.37,2013-02-16 04:49:00,
2013-02-15 23:54:00,21.9,14.6,30.12,WNW,283,5.8,5.8,73,0.00,CLR,,0.00,0.0,WeatherDisplay:10.37,2013-02-16 04:54:00,
2013-02-15 23:59:00,21.6,14.3,30.12,WNW,286,8.0,8.0,73,0.00,CLR,,0.00,0.0,WeatherDisplay:10.37,2013-02-16 04:59:00,